Weather reports worldwide

Advertisment
Wasserkuppe, Germany (10544): temperature & dewpoint: 18.06.2018 11:00:00 - 24.06.2018 11:00:00 (CEST)Wasserkuppe, Germany (10544): temperature 5cm & temperature -5cm: 18.06.2018 11:00:00 - 24.06.2018 11:00:00 (CEST)Wasserkuppe, Germany (10544): temperature -20cm & temperature -100cm: 18.06.2018 11:00:00 - 24.06.2018 11:00:00 (CEST)Wasserkuppe, Germany (10544): wind speed & gusts: 18.06.2018 11:00:00 - 24.06.2018 11:00:00 (CEST)Wasserkuppe, Germany (10544): wind direction: 18.06.2018 11:00:00 - 24.06.2018 11:00:00 (CEST)Wasserkuppe, Germany (10544): visibility: 18.06.2018 11:00:00 - 24.06.2018 11:00:00 (CEST)Wasserkuppe, Germany (10544): sunshine duration: 18.06.2018 11:00:00 - 24.06.2018 11:00:00 (CEST)Wasserkuppe, Germany (10544): precipitation: 18.06.2018 11:00:00 - 24.06.2018 11:00:00 (CEST)
Date & Time tt [°C] td [°C] tt 5cm [°C] tt -5cm [°C] tt -20cm [°C] tt -100cm [°C] ff [km/h] ff [kn] fx [km/h] fx [kn] dd vv [km] sd [min] rr [mm]
24.06.2018 11:00:00 10,1 6,7 12,4 12,7 12,5 11,5 14 7 26 14 WNW 40 12 0,0
24.06.2018 10:00:00 9,2 6,0 10,6 11,5 12,6 11,5 15 8 24 13 NW 40 3 0,0
24.06.2018 09:00:00 8,7 5,9 10,6 10,4 12,7 11,5 16 9 24 13 WNW 40 6 0,0
24.06.2018 08:00:00 8,3 5,4 9,1 9,5 12,8 11,5 19 10 26 14 NW 40 8 0,0
24.06.2018 07:00:00 7,3 5,2 7,2 9,1 12,8 11,5 13 7 17 9 WNW 40 51 0,0
24.06.2018 06:00:00 6,7 4,7 5,7 9,4 12,9 11,5 7 4 18 10 WNW 40 6 0,0
24.06.2018 05:00:00 7,3 5,0 6,8 9,5 13,0 11,5 12 6 23 12 NW 25 0 0,0
24.06.2018 04:00:00 7,4 4,8 7,1 9,7 13,1 11,5 16 8 23 13 NW 31 0 0,0
24.06.2018 03:00:00 7,7 4,8 6,8 10,0 13,2 11,5 18 10 31 17 NNW 30 0 0,0
24.06.2018 02:00:00 8,0 4,6 7,7 10,3 13,2 11,5 22 12 34 19 NNW 34 0 0,0
24.06.2018 01:00:00 8,2 4,5 7,9 10,6 13,2 11,5 22 12 35 19 NNW 34 0 0,0
24.06.2018 00:00:00 8,5 4,3 7,9 11,0 13,3 11,5 24 13 35 19 NNW 40 0 0,0
23.06.2018 23:00:00 8,6 4,1 7,5 11,6 13,2 11,5 25 13 34 18 NNW 37 0 0,0
23.06.2018 22:00:00 8,9 4,4 8,6 12,4 13,2 11,5 24 13 33 18 NW 39 0 0,0
23.06.2018 21:00:00 9,4 4,7 8,8 13,2 13,1 11,5 20 11 32 17 NW 45 5 0,0
23.06.2018 20:00:00 10,4 5,0 11,1 13,6 13,1 11,5 20 11 30 16 NW 40 32 0,0
23.06.2018 19:00:00 10,8 6,0 13,3 13,2 13,1 11,5 15 8 32 18 WNW 35 45 0,0
23.06.2018 18:00:00 9,9 5,9 11,6 12,3 13,1 11,5 13 7 23 12 WNW 35 5 0,0
23.06.2018 17:00:00 8,2 5,5 8,8 12,2 13,1 11,4 12 7 22 12 WNW 40 0 0,0
23.06.2018 16:00:00 8,0 4,8 9,1 12,0 13,1 11,4 16 8 33 18 WNW 40 0 0,1
23.06.2018 15:00:00 7,5 6,4 8,3 11,4 13,1 11,4 20 11 42 23 WNW 30 0 0,0
23.06.2018 14:00:00 7,3 5,7 7,9 11,4 13,1 11,4 20 11 36 19 WNW 40 0 0,0
23.06.2018 13:00:00 7,0 5,5 7,8 11,4 13,1 11,4 14 8 27 15 W 30 0 0,0
23.06.2018 12:00:00 6,7 5,2 7,9 11,1 13,1 11,4 17 9 26 14 W 30 0 0,0
23.06.2018 11:00:00 5,8 4,6 6,4 11,0 13,2 11,4 12 6 23 13 WNW 27 0 0,0
23.06.2018 10:00:00 6,2 4,4 6,8 10,2 13,3 11,4 18 10 34 18 WNW 14 13 0,0
23.06.2018 09:00:00 5,5 4,4 6,8 9,2 13,5 11,4 19 10 30 16 WNW 23 1 0,0
23.06.2018 08:00:00 4,8 4,1 5,6 8,7 13,6 11,4 20 11 34 18 NW 10 0 0,0
23.06.2018 07:00:00 4,4 3,6 4,6 8,7 13,7 11,4 22 12 34 18 NW 2,6 0 0,0
23.06.2018 06:00:00 4,3 3,8 4,4 8,8 13,8 11,4 22 12 31 17 NW 1,8 0 0,0
23.06.2018 05:00:00 4,3 3,8 4,2 9,1 14,0 11,4 22 12 39 21 NW 10 0 0,0
23.06.2018 04:00:00 4,7 4,4 4,5 9,5 14,1 11,4 25 14 35 19 NW 2,2 0 0,0
23.06.2018 03:00:00 5,3 4,9 5,2 9,8 14,2 11,4 26 14 38 21 NW 4,4 0 0,0
23.06.2018 02:00:00 5,7 5,0 5,1 10,1 14,3 11,4 22 12 41 22 NW 14 0 0,0
23.06.2018 01:00:00 6,0 5,5 6,0 10,4 14,4 11,4 22 12 34 18 NW 9 0 0,0
23.06.2018 00:00:00 6,3 6,0 6,3 10,7 14,5 11,4 18 10 27 15 WNW 3,2 0 0,0
22.06.2018 23:00:00 6,7 6,3 6,7 11,0 14,6 11,4 16 9 28 15 WNW 6 0 0,0
22.06.2018 22:00:00 6,7 6,2 6,4 11,5 14,6 11,4 18 10 27 14 WNW 11 0 0,0
22.06.2018 21:00:00 6,9 6,4 7,0 11,9 14,7 11,4 18 10 28 15 WNW 40 0 0,0
22.06.2018 20:00:00 6,8 6,0 7,0 12,3 14,7 11,4 19 10 35 19 WNW 45 8 0,0
22.06.2018 19:00:00 7,2 6,5 8,2 12,5 14,8 11,4 19 10 41 22 WNW 0,5 2 0,6
22.06.2018 18:00:00 7,2 5,8 7,5 12,7 14,8 11,4 17 9 40 22 WNW 55 0 0,1
22.06.2018 17:00:00 7,2 5,3 7,4 13,1 14,9 11,4 24 13 41 22 WNW 50 0 0,0
22.06.2018 16:00:00 7,4 5,6 8,2 12,5 15,0 11,4 20 11 37 20 W 30 15 0,0
22.06.2018 15:00:00 6,7 5,8 8,0 11,7 15,1 11,4 23 12 48 26 WNW 12 0 0,2
22.06.2018 14:00:00 5,9 5,0 6,6 11,4 15,3 11,4 28 15 41 22 WNW 13 2 0,2
22.06.2018 13:00:00 5,7 5,2 6,5 10,7 15,5 11,4 25 13 48 26 WNW 0,3 0 0,8
22.06.2018 12:00:00 5,0 4,5 5,5 10,6 15,7 11,4 22 12 45 24 WNW 0,6 0 0,3
22.06.2018 11:00:00 4,4 4,1 4,9 10,7 15,9 11,4 24 13 41 22 W 0,3 0 0,9
22.06.2018 10:00:00 4,0 3,7 4,4 11,0 16,1 11,3 26 14 44 24 W 0,3 0 1,0
22.06.2018 09:00:00 4,2 3,8 4,7 11,1 16,3 11,3 23 12 38 21 W 4,5 0 0,0
22.06.2018 08:00:00 3,7 3,3 4,0 11,1 16,5 11,3 18 10 29 15 W 0,3 0 0,0
22.06.2018 07:00:00 3,5 2,9 3,9 11,3 16,7 11,3 16 9 29 16 W 14 0 0,0
22.06.2018 06:00:00 3,3 2,7 3,6 11,6 17,0 11,3 17 9 28 15 WNW 16 0 0,0
22.06.2018 05:00:00 3,9 3,3 4,2 11,9 17,2 11,3 17 9 34 18 WNW 10 0 0,0
22.06.2018 04:00:00 4,0 3,1 4,0 12,4 17,5 11,3 24 13 41 22 NW 22 0 0,0
22.06.2018 03:00:00 4,5 3,3 4,6 12,9 17,7 11,3 23 12 35 19 WNW 31 0 0,0
22.06.2018 02:00:00 4,7 2,3 3,8 13,8 17,9 11,3 26 14 41 22 NW 54 0 0,0
22.06.2018 01:00:00 5,8 1,9 5,5 14,6 18,1 11,3 27 14 39 21 NW 53 0 0,0
22.06.2018 00:00:00 6,2 1,8 5,2 15,6 18,2 11,3 28 15 46 25 NW 52 0 0,0
21.06.2018 23:00:00 7,2 1,0 6,3 17,0 18,2 11,3 30 16 45 24 NW 57 0 0,0
21.06.2018 22:00:00 8,0 0,5 6,9 18,6 18,2 11,3 24 13 48 26 NW 60 5 0,0
21.06.2018 21:00:00 9,5 0,7 8,7 20,3 18,2 11,3 34 18 53 28 NNW 70 38 0,0
21.06.2018 20:00:00 12,0 0,6 12,5 21,6 18,1 11,3 30 16 49 26 NW 70 60 0,0
21.06.2018 19:00:00 13,4 1,5 14,8 22,4 18,0 11,3 34 18 53 29 NW 70 47 0,0
21.06.2018 18:00:00 13,9 1,8 16,4 22,7 18,0 11,3 29 16 53 29 NW 70 45 0,0
21.06.2018 17:00:00 14,8 3,6 15,7 22,1 17,9 11,3 26 14 53 29 WNW 50 49 0,0
21.06.2018 16:00:00 15,5 7,2 18,2 20,7 17,9 11,3 30 16 57 31 WNW 45 49 0,0
21.06.2018 15:00:00 13,7 9,8 14,9 20,0 17,8 11,3 24 13 40 22 WNW 25 7 0,4
21.06.2018 14:00:00 11,1 8,8 10,8 21,1 17,8 11,3 22 12 59 32 W 10 0 0,0
21.06.2018 13:00:00 14,4 11,4 15,3 22,1 17,7 11,3 26 14 45 25 WNW 55 3 0,0
21.06.2018 12:00:00 16,1 10,4 16,7 22,2 17,6 11,3 26 14 43 23 W 55 36 0,0
21.06.2018 11:00:00 17,5 11,5 19,3 21,1 17,7 11,3 29 16 48 26 WSW 55 40 0,0
21.06.2018 10:00:00 18,0 13,4 19,7 19,6 17,8 11,3 21 11 33 18 WSW 50 46 0,0
21.06.2018 09:00:00 16,7 12,9 18,3 17,9 17,9 11,3 16 9 28 15 W 50 60 0,0
21.06.2018 08:00:00 17,6 12,2 18,1 16,8 18,1 11,3 24 13 40 21 SW 70 60 0,0
21.06.2018 07:00:00 15,9 12,1 15,7 16,3 18,3 11,3 14 8 18 10 SW 70 57 0,0
21.06.2018 06:00:00 15,6 11,8 14,5 16,5 18,5 11,3 12 6 24 13 W 60 0 0,0
21.06.2018 05:00:00 14,7 11,4 12,6 17,0 18,7 11,3 18 10 24 13 SW 30 0 0,0
21.06.2018 04:00:00 14,7 11,4 11,7 17,6 18,9 11,3 16 9 18 10 SW 30 0 0,0
21.06.2018 03:00:00 16,2 11,9 14,4 18,4 19,0 11,3 14 8 16 9 WSW 35 0 0,0
21.06.2018 02:00:00 15,9 11,8 12,9 19,3 19,1 11,3 13 7 16 9 SW 35 0 0,0
21.06.2018 01:00:00 17,0 12,3 15,1 20,2 19,2 11,3 10 6 14 8 WSW 34 0 0,0
21.06.2018 00:00:00 17,1 11,7 14,6 21,4 19,1 11,3 10 5 11 6 W 40 0 0,0
20.06.2018 23:00:00 17,4 11,6 13,9 22,8 19,0 11,3 9 5 12 7 W 42 0 0,0
20.06.2018 22:00:00 18,0 11,1 16,1 24,5 18,8 11,3 11 6 14 8 W 47 6 0,0
20.06.2018 21:00:00 18,1 10,2 16,7 26,5 18,5 11,3 11 6 19 11 WSW 80 49 0,0
20.06.2018 20:00:00 21,1 11,3 21,6 28,1 18,2 11,3 13 7 22 12 W 82 60 0,0
20.06.2018 19:00:00 22,5 12,4 24,3 29,1 17,7 11,3 13 7 22 12 W 82 60 0,0
20.06.2018 18:00:00 23,2 13,2 25,6 29,4 17,3 11,3 14 7 23 12 WSW 82 60 0,0
20.06.2018 17:00:00 22,1 13,8 23,5 29,3 16,9 11,3 9 5 23 12 SW 80 53 0,0
20.06.2018 16:00:00 23,6 14,2 28,7 28,5 16,5 11,3 13 7 19 11 WSW 80 52 0,0
20.06.2018 15:00:00 21,6 12,6 24,0 27,3 16,3 11,2 11 6 21 12 WSW 70 51 0,0
20.06.2018 14:00:00 22,9 15,1 27,7 25,1 16,1 11,3 13 7 27 14 SSW 70 54 0,0
20.06.2018 13:00:00 20,0 13,2 22,8 22,8 16,0 11,2 11 6 21 12 SW 70 33 0,0
20.06.2018 12:00:00 19,4 14,0 21,5 21,0 15,9 11,3 13 7 23 12 SW 70 31 0,0
20.06.2018 11:00:00 18,5 13,5 21,7 18,6 16,0 11,3 13 7 21 12 S 55 30 0,0
20.06.2018 10:00:00 17,2 13,7 20,6 16,6 16,0 11,3 12 7 22 12 S 40 12 0,0
20.06.2018 09:00:00 15,3 12,8 16,5 15,4 16,2 11,3 20 11 24 13 S 35 19 0,0
20.06.2018 08:00:00 14,8 13,1 15,8 14,3 16,3 11,2 12 6 16 8 SSE 35 50 0,0
20.06.2018 07:00:00 13,8 11,4 13,1 13,6 16,5 11,3 8 5 10 5 SSE 30 60 0,0
20.06.2018 06:00:00 12,8 11,2 9,8 13,8 16,6 11,3 6 3 13 7 SE 18 23 0,0
20.06.2018 05:00:00 12,4 10,7 9,8 14,4 16,8 11,3 8 4 10 5 ESE 31 0 0,0
20.06.2018 04:00:00 13,1 10,8 10,7 14,9 16,9 11,3 7 4 13 7 N 31 0 0,0
20.06.2018 03:00:00 13,5 10,9 11,8 15,4 17,0 11,3 13 7 14 8 N 33 0 0,0
20.06.2018 02:00:00 13,4 11,2 11,7 16,0 17,1 11,3 13 7 14 8 N 29 0 0,0
20.06.2018 01:00:00 13,4 11,8 12,3 16,7 17,2 11,3 13 7 15 8 NNW 20 0 0,0
20.06.2018 00:00:00 13,5 12,2 12,0 17,5 17,2 11,2 8 5 13 7 NNW 14 0 0,0
19.06.2018 23:00:00 14,0 12,3 12,7 18,4 17,2 11,2 11 6 14 8 NNW 15 0 0,0
19.06.2018 22:00:00 14,6 12,7 14,0 19,3 17,2 11,2 10 5 12 7 NNW 18 0 0,0
19.06.2018 21:00:00 15,1 12,6 14,3 20,1 17,1 11,2 10 6 19 11 WNW 65 27 0,0
19.06.2018 20:00:00 15,5 12,9 15,6 20,7 17,0 11,2 10 6 18 10 WNW 65 4 0,0
19.06.2018 19:00:00 15,9 12,9 16,4 21,2 16,8 11,2 8 4 17 9 W 65 0 0,0
19.06.2018 18:00:00 15,8 12,7 16,4 21,8 16,7 11,2 11 6 18 10 W 70 0 0,0
19.06.2018 17:00:00 16,1 12,1 16,9 22,2 16,5 11,2 11 6 18 10 W 70 0 0,0
19.06.2018 16:00:00 16,5 12,1 18,2 22,4 16,3 11,2 12 6 22 12 W 65 0 0,0
19.06.2018 15:00:00 17,4 12,2 19,8 22,2 16,1 11,2 15 8 21 12 WSW 70 6 0,0
19.06.2018 14:00:00 16,8 13,0 19,1 22,2 15,9 11,2 13 7 20 11 WSW 70 1 0,0
19.06.2018 13:00:00 15,9 11,3 17,3 22,2 15,8 11,2 12 6 24 13 W 75 9 0,0
19.06.2018 12:00:00 16,9 11,8 19,3 20,8 15,8 11,2 11 6 24 13 W 75 47 0,0
19.06.2018 11:00:00 16,6 12,2 20,2 18,4 15,8 11,2 12 7 18 10 SW 60 48 0,0
19.06.2018 10:00:00 15,3 12,2 17,7 16,2 15,9 11,2 10 5 20 11 WSW 30 37 0,0
19.06.2018 09:00:00 13,1 11,8 14,5 15,0 16,0 11,2 16 9 27 15 W 10 7 0,0
19.06.2018 08:00:00 11,9 11,6 12,5 14,6 16,1 11,2 16 8 29 16 W 0,1 0 0,0
19.06.2018 07:00:00 12,0 11,7 12,1 14,6 16,2 11,2 16 9 31 17 W 0,1 0 0,0
19.06.2018 06:00:00 12,3 12,0 12,3 14,6 16,3 11,2 20 11 27 15 WSW 0,1 0 0,0
19.06.2018 05:00:00 12,4 12,0 12,3 14,7 16,5 11,2 19 10 26 14 WSW 0,3 0 0,0
19.06.2018 04:00:00 12,5 11,8 12,4 14,7 16,6 11,2 18 10 29 16 WSW 6 0 0,0
19.06.2018 03:00:00 12,4 11,5 12,4 14,8 16,7 11,2 22 12 31 17 WSW 13 0 0,0
19.06.2018 02:00:00 11,8 10,8 10,9 15,2 16,9 11,2 22 12 29 16 WSW 16 0 0,0
19.06.2018 01:00:00 11,5 10,2 10,7 15,9 16,9 11,2 20 11 27 14 SW 20 0 0,0
19.06.2018 00:00:00 11,7 10,3 10,9 16,6 17,0 11,2 21 11 27 14 SW 24 0 0,0
18.06.2018 23:00:00 11,3 9,6 10,1 17,7 17,0 11,2 18 10 23 13 SW 25 0 0,0
18.06.2018 22:00:00 11,9 9,3 10,8 18,9 16,9 11,2 17 9 26 14 WSW 29 0 0,0
18.06.2018 21:00:00 13,7 10,1 13,4 20,1 16,8 11,2 16 8 23 12 WSW 80 5 0,0
18.06.2018 20:00:00 15,0 9,9 15,6 21,0 16,7 11,2 16 9 28 15 WSW 80 31 0,0
18.06.2018 19:00:00 15,7 10,5 16,8 21,5 16,5 11,2 18 10 27 14 SW 80 26 0,0
18.06.2018 18:00:00 15,9 10,4 17,9 21,5 16,3 11,2 17 9 29 16 WSW 80 4 0,0
18.06.2018 17:00:00 15,1 9,7 16,2 21,8 16,1 11,2 18 10 31 17 WSW 70 1 0,0
18.06.2018 16:00:00 14,7 8,8 15,8 22,6 15,9 11,2 15 8 27 15 W 80 0 0,0
18.06.2018 15:00:00 16,2 9,9 18,8 22,6 15,7 11,2 19 10 29 16 SW 80 15 0,0
18.06.2018 14:00:00 15,6 9,7 17,7 21,8 15,6 11,2 16 8 29 15 SW 80 25 0,0
18.06.2018 13:00:00 15,4 8,8 18,9 20,3 15,6 11,2 16 9 30 16 WSW 75 20 0,0
18.06.2018 12:00:00 15,9 10,2 19,3 18,0 15,6 11,2 13 7 24 13 W 75 34 0,0
18.06.2018 11:00:00 13,2 8,1 15,0 16,4 15,7 11,2 14 8 23 12 WSW 80 0 0,0

tt = temperature
td = dewpoint
tt 5cm = temperature 5cm
tt -5cm = temperature -5cm
tt -20cm = temperature -20cm
tt -100cm = temperature -100cm
ff = wind speed
fx = gusts
dd = wind direction
vv = visibility
sd = sunshine duration
rr = precipitation

Next stations